Time;durP1;ratioP1;P1;durP2;ratioP2;P2;SDS_P1;SDS_P2;PMS_P1;PMS_P2;Temp;Humidity;BMP_temperature;BMP_pressure;BME280_temperature;BME280_humidity;BME280_pressure;Samples;Min_cycle;Max_cycle;Signal;HPM_P1;HPM_P2
2022/09/22 00:01:36;;;;;;;;;15.00;12.67;;;;;8.32;99.10;100062.72;6282556;20;2788965;-47
2022/09/22 00:04:11;;;;;;;;;19.50;17.50;;;;;7.99;99.91;100058.00;6313765;20;2828559;-45
2022/09/22 00:06:46;;;;;;;;;21.50;20.00;;;;;8.04;100.00;100066.69;6280242;20;2492404;-45
2022/09/22 00:09:19;;;;;;;;;21.33;20.00;;;;;7.94;100.00;100060.00;6282472;20;3562745;-47
2022/09/22 00:11:52;;;;;;;;;23.50;18.00;;;;;7.96;99.59;100066.16;6279498;20;2500363;-46
2022/09/22 00:14:28;;;;;;;;;22.50;18.00;;;;;7.95;99.57;100063.53;6280480;20;2501587;-47
2022/09/22 00:17:00;;;;;;;;;22.67;19.67;;;;;8.11;99.01;100056.59;6279713;20;3559619;-46
2022/09/22 00:19:38;;;;;;;;;18.67;15.67;;;;;7.66;100.00;100047.88;6283820;20;3554427;-45
2022/09/22 00:22:06;;;;;;;;;15.00;14.00;;;;;7.48;100.00;100056.69;6313245;20;3538801;-46
2022/09/22 00:24:34;;;;;;;;;15.00;14.00;;;;;7.54;100.00;100045.72;6315087;20;2796094;-50
2022/09/22 00:27:02;;;;;;;;;18.00;14.00;;;;;7.46;100.00;100045.19;6283068;20;2806558;-47
2022/09/22 00:29:30;;;;;;;;;16.00;15.50;;;;;7.47;100.00;100046.91;6283597;20;2826331;-46
2022/09/22 00:31:59;;;;;;;;;15.67;13.67;;;;;8.06;100.00;100054.09;6279272;20;2800328;-47
2022/09/22 00:34:33;;;;;;;;;11.00;11.00;;;;;8.26;100.00;100055.00;6312842;20;2792036;-48
2022/09/22 00:37:01;;;;;;;;;15.00;11.00;;;;;7.87;100.00;100051.41;6282874;20;2798275;-45
2022/09/22 00:39:30;;;;;;;;;18.33;13.67;;;;;8.02;100.00;100051.63;6280127;20;3550218;-45
2022/09/22 00:41:58;;;;;;;;;12.00;10.50;;;;;7.91;100.00;100049.44;6317002;20;2784801;-45
2022/09/22 00:44:40;;;;;;;;;15.67;14.00;;;;;8.03;100.00;100054.25;6276707;20;2794008;-45
2022/09/22 00:47:32;;;;;;;;;15.33;14.67;;;;;8.20;100.00;100055.28;6312512;20;3544015;-47
2022/09/22 00:50:17;;;;;;;;;19.50;18.00;;;;;8.29;99.75;100057.53;6309344;20;2500303;-49
2022/09/22 00:53:02;;;;;;;;;16.50;15.00;;;;;8.25;99.59;100045.25;6276485;20;2823161;-47
2022/09/22 00:55:42;;;;;;;;;11.00;10.00;;;;;8.56;98.41;100050.94;6280151;20;2794009;-46
2022/09/22 00:58:18;;;;;;;;;11.00;9.50;;;;;8.44;98.26;100047.97;6309829;20;2774402;-48
2022/09/22 01:00:48;;;;;;;;;9.40;9.00;;;;;8.51;98.01;100049.41;6303792;20;2764840;-48
2022/09/22 01:03:21;;;;;;;;;10.00;10.00;;;;;8.61;97.27;100036.44;6303314;20;2784636;-47
2022/09/22 01:06:02;;;;;;;;;9.00;9.00;;;;;8.67;96.77;100034.34;6277595;20;2750313;-49
2022/09/22 01:08:32;;;;;;;;;16.33;13.00;;;;;8.72;97.03;100031.47;6310944;20;3528480;-46
2022/09/22 01:11:00;;;;;;;;;13.00;10.00;;;;;8.82;97.70;100038.09;6309251;20;2789339;-48
2022/09/22 01:14:12;;;;;;;;;13.00;10.00;;;;;8.79;96.92;100033.78;6302960;20;2789901;-45
2022/09/22 01:17:23;;;;;;;;;4.50;3.00;;;;;8.74;98.20;100030.44;6285401;20;2748165;-47
2022/09/22 01:20:42;;;;;;;;;10.29;7.43;;;;;8.75;97.91;100033.97;6354944;20;1798167;-45
2022/09/22 01:23:28;;;;;;;;;13.00;11.00;;;;;8.51;98.79;100033.34;6307333;20;2784654;-47
2022/09/22 01:26:48;;;;;;;;;12.20;10.60;;;;;8.52;99.26;100025.25;6304191;20;2794051;-46
2022/09/22 01:30:07;;;;;;;;;10.00;9.00;;;;;8.77;97.52;100021.41;6282158;20;2752319;-46
2022/09/22 01:32:44;;;;;;;;;8.40;7.00;;;;;8.69;97.80;100015.53;6304785;20;2745195;-48
2022/09/22 01:35:32;;;;;;;;;9.50;9.50;;;;;8.50;99.42;100018.22;6308989;20;2760696;-48
2022/09/22 01:38:42;;;;;;;;;11.00;10.80;;;;;8.33;100.00;100019.88;6304128;20;2792107;-46
2022/09/22 01:41:40;;;;;;;;;16.33;14.67;;;;;8.52;100.00;100019.03;6280955;20;3536705;-51
2022/09/22 01:44:39;;;;;;;;;13.60;8.60;;;;;8.17;100.00;100024.19;6331669;20;2760667;-47
2022/09/22 01:47:49;;;;;;;;;15.50;13.00;;;;;8.19;100.00;100026.78;6281510;20;2801317;-46
2022/09/22 01:50:35;;;;;;;;;17.00;10.00;;;;;8.06;100.00;100032.72;6279126;20;2798155;-46
2022/09/22 01:53:13;;;;;;;;;14.00;11.33;;;;;7.68;100.00;100032.63;6270888;20;2789895;-48
2022/09/22 01:55:50;;;;;;;;;14.00;9.00;;;;;8.05;100.00;100030.97;6305326;20;2754592;-50
2022/09/22 01:58:33;;;;;;;;;10.75;8.50;;;;;8.17;100.00;100031.34;6297007;20;1809876;-47
2022/09/22 02:01:11;;;;;;;;;10.60;10.20;;;;;7.97;100.00;100027.78;6333106;20;2798283;-46
2022/09/22 02:03:56;;;;;;;;;8.80;8.80;;;;;8.21;100.00;100025.78;6302031;20;2744082;-47
2022/09/22 02:06:52;;;;;;;;;11.00;10.00;;;;;8.09;100.00;100029.03;6308082;20;2783692;-46
2022/09/22 02:09:25;;;;;;;;;8.50;8.00;;;;;8.13;100.00;100022.59;6280013;20;2751404;-47
2022/09/22 02:11:52;;;;;;;;;7.00;7.00;;;;;8.15;100.00;100023.41;6278032;20;2736952;-47
2022/09/22 02:14:20;;;;;;;;;7.00;7.00;;;;;7.92;100.00;100035.13;6277546;20;2738807;-47
2022/09/22 02:16:48;;;;;;;;;9.50;8.50;;;;;7.82;100.00;100037.38;6280427;20;2758827;-46
2022/09/22 02:19:31;;;;;;;;;7.00;7.00;;;;;8.13;100.00;100028.81;6276895;20;2742989;-45
2022/09/22 02:22:00;;;;;;;;;9.50;8.00;;;;;8.32;99.78;100030.63;6282008;20;2746158;-47
2022/09/22 02:24:39;;;;;;;;;8.75;5.50;;;;;8.36;98.68;100024.19;6328265;20;1814955;-46
2022/09/22 02:27:35;;;;;;;;;5.50;5.50;;;;;8.35;98.86;100026.00;6326691;20;1821215;-48
2022/09/22 02:30:10;;;;;;;;;8.00;7.00;;;;;8.10;99.96;100020.06;6310253;20;2730482;-44
2022/09/22 02:32:45;;;;;;;;;10.50;10.50;;;;;8.34;99.92;100020.72;6274908;20;2790086;-47
2022/09/22 02:35:15;;;;;;;;;30.00;24.00;;;;;8.41;98.75;100019.53;6277553;20;2852765;-48
2022/09/22 02:38:13;;;;;;;;;22.00;17.00;;;;;8.25;98.51;100021.16;6279815;20;2837815;-45
2022/09/22 02:40:56;;;;;;;;;14.50;11.00;;;;;8.04;99.99;100017.69;6279048;20;2786098;-47
2022/09/22 02:43:33;;;;;;;;;12.00;7.50;;;;;8.10;100.00;100018.25;6271758;20;2758660;-46
2022/09/22 02:46:27;;;;;;;;;9.00;7.00;;;;;8.33;99.17;100010.97;6272755;20;2734682;-48
2022/09/22 02:49:10;;;;;;;;;10.50;7.50;;;;;8.52;97.30;100009.19;6277686;20;2764963;-48
2022/09/22 02:51:39;;;;;;;;;10.50;8.00;;;;;8.55;96.66;100010.84;6281932;20;2754529;-49
2022/09/22 02:54:09;;;;;;;;;9.50;8.33;;;;;8.63;96.31;100007.81;6321421;20;1797176;-50
2022/09/22 02:56:37;;;;;;;;;6.00;6.00;;;;;8.48;96.28;100004.94;6282487;20;2742932;-46
2022/09/22 02:59:04;;;;;;;;;6.00;6.00;;;;;8.38;97.03;100006.28;6282211;20;2741923;-47
2022/09/22 03:01:32;;;;;;;;;9.00;8.00;;;;;8.28;97.41;100005.84;6313183;20;2742193;-47
2022/09/22 03:04:02;;;;;;;;;11.00;8.00;;;;;8.33;97.59;100002.94;6275068;20;2756485;-49
2022/09/22 03:06:31;;;;;;;;;10.00;10.00;;;;;8.13;98.67;100010.06;6273953;20;2796554;-52
2022/09/22 03:08:59;;;;;;;;;9.50;9.50;;;;;7.97;99.79;99995.69;6298866;20;1807771;-51
2022/09/22 03:11:28;;;;;;;;;10.00;10.00;;;;;8.23;99.52;100001.66;6310842;20;2785665;-49
2022/09/22 03:13:58;;;;;;;;;10.60;10.40;;;;;8.33;98.30;99993.09;6331608;20;2787757;-49
2022/09/22 03:16:27;;;;;;;;;9.80;9.80;;;;;8.23;97.98;99990.94;6304683;20;2762824;-51
2022/09/22 03:18:56;;;;;;;;;10.00;8.00;;;;;8.28;97.79;100000.47;6276621;20;2757545;-46
2022/09/22 03:21:25;;;;;;;;;5.80;5.80;;;;;8.30;97.17;100005.78;6305647;20;2740926;-50
2022/09/22 03:23:53;;;;;;;;;8.50;8.00;;;;;8.25;97.77;99999.78;6311396;20;2737793;-48
2022/09/22 03:26:21;;;;;;;;;10.00;10.00;;;;;8.10;98.58;100004.88;6280619;20;2796079;-51
2022/09/22 03:28:48;;;;;;;;;8.50;8.50;;;;;8.03;99.38;100003.44;6284921;20;2739888;-51
2022/09/22 03:31:16;;;;;;;;;16.00;11.00;;;;;8.32;98.20;100006.53;6319935;20;2798168;-50
2022/09/22 03:33:44;;;;;;;;;11.00;11.00;;;;;8.28;97.73;100005.84;6280220;20;2787966;-49
2022/09/22 03:36:18;;;;;;;;;11.00;11.00;;;;;8.38;97.55;99995.56;6280081;20;2796161;-52
2022/09/22 03:38:47;;;;;;;;;11.40;9.40;;;;;8.49;97.40;100003.97;6310235;20;2756508;-49
2022/09/22 03:41:16;;;;;;;;;11.50;9.00;;;;;8.52;97.14;100003.81;6281522;20;2765635;-50
2022/09/22 03:43:43;;;;;;;;;8.00;8.00;;;;;8.37;97.89;100004.53;6286627;20;2748245;-50
2022/09/22 03:46:13;;;;;;;;;10.40;8.60;;;;;8.35;98.31;100003.75;6306138;20;2755518;-52
2022/09/22 03:48:41;;;;;;;;;9.00;9.00;;;;;8.24;99.55;100006.94;6317895;20;2748441;-50
2022/09/22 03:51:12;;;;;;;;;15.67;12.33;;;;;8.42;99.61;100007.88;6278081;20;2785834;-51
2022/09/22 03:53:41;;;;;;;;;28.33;18.00;;;;;8.50;98.61;99997.69;6308784;20;3582588;-52
2022/09/22 03:56:14;;;;;;;;;12.00;11.00;;;;;8.52;97.74;100003.81;6280520;20;2782587;-54
2022/09/22 03:58:42;;;;;;;;;11.50;10.00;;;;;8.56;98.25;99994.72;6312129;20;2777356;-53
2022/09/22 04:01:11;;;;;;;;;9.50;8.50;;;;;8.39;98.44;99994.66;6283970;20;2756567;-55
2022/09/22 04:03:39;;;;;;;;;11.00;10.00;;;;;8.49;98.71;99993.28;6282170;20;2768087;-56
2022/09/22 04:06:08;;;;;;;;;11.00;11.00;;;;;8.52;98.52;99992.25;6284126;20;2784739;-55
2022/09/22 04:08:38;;;;;;;;;14.60;10.00;;;;;8.42;98.24;100004.34;6307856;20;2794103;-54
2022/09/22 04:11:08;;;;;;;;;11.80;9.80;;;;;8.37;98.14;99993.81;6305748;20;2792067;-57
2022/09/22 04:13:36;;;;;;;;;17.33;15.33;;;;;8.34;98.42;100004.66;6281921;20;3553540;-56
2022/09/22 04:16:10;;;;;;;;;11.00;9.00;;;;;8.45;98.36;99996.16;6309624;20;2752508;-55
2022/09/22 04:18:41;;;;;;;;;16.00;13.00;;;;;8.28;98.57;100002.28;6285853;20;2797171;-55
2022/09/22 04:21:09;;;;;;;;;13.00;11.00;;;;;8.33;98.35;100013.66;6283663;20;2788790;-53
2022/09/22 04:23:38;;;;;;;;;11.33;10.00;;;;;8.28;98.84;100016.53;6283511;20;2784742;-56
2022/09/22 04:26:07;;;;;;;;;10.80;8.00;;;;;8.22;98.62;100007.94;6337477;20;2748160;-55
2022/09/22 04:28:35;;;;;;;;;9.50;9.50;;;;;8.42;98.78;100007.88;6315013;20;2753428;-56
2022/09/22 04:31:05;;;;;;;;;11.20;9.80;;;;;8.37;98.56;100012.53;6304917;20;2777379;-56
2022/09/22 04:33:33;;;;;;;;;15.00;11.00;;;;;8.18;99.27;100014.38;6279744;20;2780576;-54
2022/09/22 04:36:02;;;;;;;;;11.80;9.40;;;;;8.42;98.96;100018.59;6308668;20;2752416;-55
2022/09/22 04:38:30;;;;;;;;;10.00;8.50;;;;;8.42;98.42;100015.91;6280082;20;2762957;-55
2022/09/22 04:40:58;;;;;;;;;11.50;8.00;;;;;8.60;97.74;100010.63;6287228;20;2760703;-56
2022/09/22 04:43:27;;;;;;;;;11.00;9.40;;;;;8.61;97.76;100007.00;6305598;20;2764185;-55
2022/09/22 04:45:57;;;;;;;;;15.60;12.80;;;;;8.64;97.83;100009.56;6300988;20;2820079;-56
2022/09/22 04:48:25;;;;;;;;;14.00;10.33;;;;;8.57;98.17;100015.19;6280442;20;2790966;-56
2022/09/22 04:50:54;;;;;;;;;16.33;15.33;;;;;8.50;99.11;100012.88;6310848;20;3552556;-57
2022/09/22 04:53:22;;;;;;;;;17.50;12.50;;;;;8.49;99.57;100022.72;6313423;20;2811703;-57
2022/09/22 04:55:50;;;;;;;;;13.00;11.00;;;;;8.74;99.24;100018.84;6280551;20;2786703;-57
2022/09/22 04:58:18;;;;;;;;;17.50;13.50;;;;;8.87;98.10;100024.47;6283242;20;2810667;-57
2022/09/22 05:00:46;;;;;;;;;16.00;15.00;;;;;8.83;97.28;100021.09;6277675;20;2822143;-57
2022/09/22 05:03:15;;;;;;;;;17.33;16.33;;;;;8.78;97.59;100020.44;6279661;20;3556534;-56
2022/09/22 05:05:49;;;;;;;;;16.33;16.00;;;;;8.92;97.51;100023.28;6279348;20;3565831;-57
2022/09/22 05:08:17;;;;;;;;;13.00;13.00;;;;;8.88;97.46;100020.88;6303654;20;2797251;-55
2022/09/22 05:10:45;;;;;;;;;13.50;12.00;;;;;8.93;96.95;100019.69;6280116;20;2792171;-57
2022/09/22 05:13:13;;;;;;;;;16.00;12.00;;;;;8.81;98.57;100016.75;6283144;20;2798233;-55
2022/09/22 05:15:41;;;;;;;;;25.00;18.50;;;;;8.83;99.24;100018.41;6279178;20;2491944;-55
2022/09/22 05:18:09;;;;;;;;;18.00;17.00;;;;;8.81;99.49;100022.97;6280091;20;2825340;-56
2022/09/22 05:20:38;;;;;;;;;14.33;13.00;;;;;8.86;99.58;100007.53;6279730;20;3548175;-56
2022/09/22 05:23:06;;;;;;;;;13.00;11.50;;;;;8.91;99.53;100013.53;6315972;20;2792966;-57
2022/09/22 05:25:34;;;;;;;;;14.67;11.67;;;;;9.06;98.24;100019.06;6278921;20;2796127;-57
2022/09/22 05:28:02;;;;;;;;;13.50;12.00;;;;;8.97;98.45;100015.91;6313687;20;2786789;-57
2022/09/22 05:30:31;;;;;;;;;17.33;13.00;;;;;8.96;98.89;100019.53;6281833;20;3528362;-57
2022/09/22 05:32:58;;;;;;;;;11.00;9.00;;;;;9.14;98.34;100012.41;6311038;20;2771160;-56
2022/09/22 05:35:28;;;;;;;;;15.40;12.00;;;;;9.01;98.21;100011.28;6304706;20;2812776;-57
2022/09/22 05:38:03;;;;;;;;;12.33;12.33;;;;;9.06;98.66;100021.75;6280243;20;2789892;-57
2022/09/22 05:40:32;;;;;;;;;12.00;12.00;;;;;9.07;98.05;100027.03;6311066;20;2788918;-57
2022/09/22 05:43:00;;;;;;;;;20.00;14.50;;;;;9.14;97.28;100025.78;6308983;20;2479400;-58
2022/09/22 05:45:29;;;;;;;;;32.00;26.50;;;;;9.30;96.80;100025.88;6280206;20;2849202;-58
2022/09/22 05:47:57;;;;;;;;;34.50;31.50;;;;;9.48;96.80;100021.41;6274885;20;2850281;-56
2022/09/22 05:50:26;;;;;;;;;18.00;18.00;;;;;9.57;95.67;100028.09;6274397;20;2827519;-60
2022/09/22 05:53:08;;;;;;;;;17.00;16.33;;;;;9.35;96.43;100031.88;6304637;20;3531508;-60
2022/09/22 05:55:38;;;;;;;;;13.00;11.50;;;;;9.56;95.74;100024.53;6309552;20;2787782;-60
2022/09/22 05:58:13;;;;;;;;;18.33;12.67;;;;;9.62;95.69;100028.72;6280542;20;3534698;-60
2022/09/22 06:00:41;;;;;;;;;12.67;12.67;;;;;9.68;95.05;100023.03;6306235;20;2802482;-60
2022/09/22 06:03:10;;;;;;;;;15.33;14.00;;;;;9.79;94.83;100034.03;6309384;20;3546080;-60
2022/09/22 06:05:38;;;;;;;;;14.00;13.00;;;;;9.88;94.78;100036.25;6306271;20;3536687;-60
2022/09/22 06:08:06;;;;;;;;;13.50;13.00;;;;;9.92;93.95;100047.69;6280266;20;2802558;-60
2022/09/22 06:10:37;;;;;;;;;12.00;12.00;;;;;10.12;93.48;100038.56;6284330;20;2812849;-60
2022/09/22 06:13:09;;;;;;;;;15.33;12.67;;;;;10.25;92.63;100038.78;6281426;20;2798288;-60
2022/09/22 06:15:38;;;;;;;;;23.00;20.00;;;;;10.22;92.99;100045.19;6307101;20;2491917;-60
2022/09/22 06:18:10;;;;;;;;;22.00;20.00;;;;;10.13;94.28;100051.03;6276492;20;2835698;-60
2022/09/22 06:20:43;;;;;;;;;16.33;12.00;;;;;10.13;95.66;100045.66;6278765;20;2798314;-60
2022/09/22 06:23:14;;;;;;;;;13.00;12.50;;;;;10.25;96.33;100045.00;6308845;20;2796124;-59
2022/09/22 06:25:43;;;;;;;;;10.80;8.20;;;;;10.28;96.32;100044.88;6303196;20;2774274;-60
2022/09/22 06:28:15;;;;;;;;;9.57;8.43;;;;;10.18;96.86;100053.47;6323646;20;1806583;-60
2022/09/22 06:30:43;;;;;;;;;12.00;10.33;;;;;10.09;97.53;100052.16;6313689;20;3515907;-60
2022/09/22 06:33:13;;;;;;;;;11.20;10.40;;;;;10.12;96.56;100060.03;6340961;20;2789918;-59
2022/09/22 06:35:41;;;;;;;;;11.00;11.00;;;;;10.29;95.83;100065.41;6282217;20;2789861;-60
2022/09/22 06:38:16;;;;;;;;;10.00;10.00;;;;;10.03;95.93;100050.69;6281721;20;2790135;-59
2022/09/22 06:40:44;;;;;;;;;16.33;12.67;;;;;10.08;96.22;100053.09;6282110;20;2816079;-60
2022/09/22 06:43:22;;;;;;;;;7.60;7.60;;;;;10.07;96.00;100057.59;6338805;20;2737828;-59
2022/09/22 06:45:52;;;;;;;;;13.33;12.33;;;;;10.19;96.10;100056.09;6311999;20;3524257;-59
2022/09/22 06:48:22;;;;;;;;;14.00;14.00;;;;;10.36;95.42;100067.75;6311770;20;3529390;-59
2022/09/22 06:50:53;;;;;;;;;18.33;15.67;;;;;10.31;95.12;100062.63;6311341;20;3551304;-59
2022/09/22 06:53:23;;;;;;;;;13.50;12.00;;;;;10.39;94.93;100056.84;6308246;20;2804851;-59
2022/09/22 06:55:54;;;;;;;;;15.00;11.00;;;;;10.40;95.07;100064.81;6280167;20;2788914;-60
2022/09/22 06:58:22;;;;;;;;;19.00;17.50;;;;;10.53;94.00;100068.56;6311925;20;2494019;-60
2022/09/22 07:00:52;;;;;;;;;15.67;15.00;;;;;10.50;94.11;100065.16;6287742;20;3544047;-60
2022/09/22 07:03:25;;;;;;;;;15.00;14.00;;;;;10.77;93.37;100062.78;6317961;20;2818265;-60
2022/09/22 07:06:00;;;;;;;;;15.00;13.00;;;;;11.03;91.71;100068.47;6282570;20;2797298;-60
2022/09/22 07:08:32;;;;;;;;;11.33;10.67;;;;;12.70;85.96;100074.50;6317040;20;2790967;-59
2022/09/22 07:11:08;;;;;;;;;14.67;11.33;;;;;12.05;85.98;100066.91;6314085;20;2790388;-60
2022/09/22 07:13:41;;;;;;;;;15.60;12.00;;;;;11.98;86.46;100073.63;6342164;20;2798198;-60
2022/09/22 07:16:16;;;;;;;;;13.00;11.00;;;;;12.27;85.17;100075.41;6289404;20;2789838;-60
2022/09/22 07:18:52;;;;;;;;;10.40;9.00;;;;;12.14;84.51;100081.59;6310431;20;2743053;-60
2022/09/22 07:21:31;;;;;;;;;11.67;10.00;;;;;11.94;85.64;100078.31;6285188;20;2790923;-60
2022/09/22 07:24:01;;;;;;;;;11.80;10.20;;;;;12.15;85.20;100069.91;6342596;20;2789999;-60
2022/09/22 07:26:35;;;;;;;;;8.40;8.40;;;;;12.02;84.79;100078.72;6310674;20;2750248;-60
2022/09/22 07:29:10;;;;;;;;;18.50;17.00;;;;;12.07;84.88;100079.31;6317448;20;2829434;-60
2022/09/22 07:31:40;;;;;;;;;19.00;16.00;;;;;12.24;84.61;100082.78;6283778;20;3551359;-60
2022/09/22 07:34:08;;;;;;;;;13.50;12.00;;;;;12.34;84.17;100070.47;6317733;20;2784932;-60
2022/09/22 07:36:39;;;;;;;;;10.00;8.00;;;;;12.77;83.11;100075.84;6312013;20;2763825;-60
2022/09/22 07:39:11;;;;;;;;;11.50;10.50;;;;;12.88;81.72;100069.75;6289140;20;2794045;-59
2022/09/22 07:41:42;;;;;;;;;9.71;9.71;;;;;13.43;79.98;100070.66;6327084;20;1796259;-60
2022/09/22 07:47:02;;;;;;;;;9.00;8.00;;;;;14.18;76.65;100074.44;6280448;20;2752464;-60
2022/09/22 07:49:33;;;;;;;;;7.71;6.29;;;;;14.16;74.56;100070.13;6330672;20;3445007;-60
2022/09/22 07:52:01;;;;;;;;;9.50;7.00;;;;;13.83;75.25;100064.28;6315942;20;2745728;-59
2022/09/22 07:54:33;;;;;;;;;65.00;49.50;;;;;13.89;77.20;100064.81;6290546;20;3646050;-60
2022/09/22 07:57:05;;;;;;;;;13.00;11.00;;;;;14.04;76.84;100074.56;6315105;20;2792046;-59
2022/09/22 07:59:34;;;;;;;;;8.00;6.50;;;;;13.80;75.91;100074.44;6284815;20;2738857;-59
2022/09/22 08:02:03;;;;;;;;;8.00;8.00;;;;;14.70;74.99;100075.31;6287427;20;2735675;-60
2022/09/22 08:04:31;;;;;;;;;13.00;13.00;;;;;14.52;74.37;100076.59;6285073;20;2791991;-60
2022/09/22 08:06:59;;;;;;;;;6.50;6.50;;;;;14.55;74.06;100077.25;6289728;20;2743008;-59
2022/09/22 08:09:30;;;;;;;;;7.29;7.29;;;;;15.61;70.31;100084.78;6332344;20;3447142;-60
2022/09/22 08:12:01;;;;;;;;;8.83;8.83;;;;;15.48;71.82;100087.56;6362046;20;3474171;-59
2022/09/22 08:14:31;;;;;;;;;10.00;8.00;;;;;14.92;70.99;100085.41;6344696;20;2769121;-60
2022/09/22 08:16:58;;;;;;;;;6.00;6.00;;;;;14.64;70.60;100087.44;6286246;20;2748168;-60
2022/09/22 08:19:26;;;;;;;;;7.00;5.00;;;;;14.63;70.96;100090.22;6289316;20;2732751;-59
2022/09/22 08:21:54;;;;;;;;;9.00;7.00;;;;;14.80;70.31;100089.88;6283329;20;2756576;-59
2022/09/22 08:24:22;;;;;;;;;5.00;5.00;;;;;14.66;72.27;100093.56;6292672;20;2748171;-59
2022/09/22 08:26:54;;;;;;;;;7.00;5.00;;;;;14.61;72.23;100092.16;6283682;20;2743080;-59
2022/09/22 08:29:26;;;;;;;;;8.00;6.86;;;;;14.62;71.08;100096.63;6329537;20;3461759;-60
2022/09/22 08:31:55;;;;;;;;;3.00;3.00;;;;;14.59;70.50;100095.00;6315330;20;2756648;-59
2022/09/22 08:34:23;;;;;;;;;5.00;4.00;;;;;14.14;71.21;100097.25;6292015;20;2744033;-59
2022/09/22 08:36:50;;;;;;;;;5.00;5.00;;;;;14.07;72.19;100097.78;6289946;20;2739904;-60
2022/09/22 08:39:19;;;;;;;;;5.00;5.00;;;;;14.08;72.91;100094.97;6291639;20;2745180;-58
2022/09/22 08:42:23;;;;;;;;;7.00;5.00;;;;;14.21;73.44;100103.94;6286733;20;2739898;-59
2022/09/22 08:44:56;;;;;;;;;5.00;5.00;;;;;14.02;72.19;100096.25;6284924;20;2739889;-59
2022/09/22 08:51:52;;;;;;;;;6.00;5.00;;;;;13.86;76.00;100094.72;6281726;20;2744057;-58
2022/09/22 08:54:30;;;;;;;;;4.00;4.00;;;;;13.75;75.48;100112.53;6282576;20;2754485;-59
2022/09/22 08:57:44;;;;;;;;;4.50;4.50;;;;;13.72;74.76;100109.19;6284999;20;2748204;-59
2022/09/22 09:00:16;;;;;;;;;6.00;6.00;;;;;13.88;75.07;100101.75;6287273;20;2742957;-57
2022/09/22 09:03:35;;;;;;;;;6.50;5.50;;;;;13.75;74.62;100103.56;6288713;20;2739840;-58
2022/09/22 09:06:38;;;;;;;;;5.00;5.00;;;;;13.82;75.50;100094.06;6285734;20;2746082;-57
2022/09/22 09:09:40;;;;;;;;;16.00;14.00;;;;;14.05;74.83;100103.28;6285711;20;2803437;-58
2022/09/22 09:13:03;;;;;;;;;7.00;7.00;;;;;14.19;76.59;100094.19;6288916;20;2740981;-58
2022/09/22 09:15:41;;;;;;;;;4.00;4.00;;;;;14.15;74.82;100096.28;6283764;20;2752416;-58
2022/09/22 09:18:27;;;;;;;;;5.00;5.00;;;;;14.20;74.13;100099.50;6288661;20;2743008;-57
2022/09/22 09:20:58;;;;;;;;;4.00;4.00;;;;;14.38;74.53;100101.91;6285800;20;2748598;-58
2022/09/22 09:23:40;;;;;;;;;4.00;4.00;;;;;14.12;75.00;100096.50;6288331;20;2744002;-58
2022/09/22 09:26:30;;;;;;;;;4.50;3.50;;;;;14.18;75.94;100106.84;6283466;20;2754449;-58
2022/09/22 09:29:03;;;;;;;;;4.00;4.00;;;;;14.47;75.68;100096.69;6284379;20;2742997;-58
2022/09/22 09:31:51;;;;;;;;;6.00;6.00;;;;;14.36;75.30;100109.25;6292008;20;2740923;-59
2022/09/22 09:34:27;;;;;;;;;13.60;9.60;;;;;14.81;75.81;100101.56;6308894;20;2767989;-59
2022/09/22 09:37:11;;;;;;;;;5.50;5.50;;;;;14.30;76.64;100101.56;6282112;20;2733704;-58
2022/09/22 09:39:41;;;;;;;;;4.00;4.00;;;;;14.37;76.83;100102.84;6283886;20;2745069;-58
2022/09/22 09:42:33;;;;;;;;;7.50;7.00;;;;;13.76;80.10;100110.69;6288800;20;2748250;-59
2022/09/22 09:45:03;;;;;;;;;11.50;10.00;;;;;13.75;82.54;100108.97;6280935;20;2789846;-58
2022/09/22 09:48:14;;;;;;;;;9.00;8.00;;;;;13.67;82.13;100106.78;6282938;20;2733745;-58
2022/09/22 09:50:42;;;;;;;;;8.00;8.00;;;;;13.17;84.66;100108.28;6287574;20;2754564;-59
2022/09/22 09:53:36;;;;;;;;;8.00;8.00;;;;;12.93;85.62;100108.91;6283966;20;2750245;-59
2022/09/22 09:56:25;;;;;;;;;9.00;9.00;;;;;13.29;85.61;100107.50;6284609;20;2750273;-59
2022/09/22 10:01:54;;;;;;;;;35.67;29.33;;;;;13.43;85.46;100101.22;6287887;20;3593990;-58
2022/09/22 10:04:35;;;;;;;;;12.00;10.00;;;;;13.31;84.24;100119.06;6282219;20;2793993;-58
2022/09/22 10:07:11;;;;;;;;;12.00;12.00;;;;;13.36;86.03;100114.22;6280734;20;2796165;-57
2022/09/22 10:09:40;;;;;;;;;8.00;8.00;;;;;13.67;84.53;100117.56;6319096;20;2729437;-57
2022/09/22 10:12:31;;;;;;;;;14.00;13.00;;;;;13.89;85.20;100106.16;6279719;20;3528384;-59
2022/09/22 10:15:00;;;;;;;;;9.00;8.00;;;;;13.90;83.89;100121.41;6287336;20;2758725;-57
2022/09/22 10:17:41;;;;;;;;;10.50;7.50;;;;;13.81;84.20;100125.59;6285956;20;2751406;-59
2022/09/22 10:20:32;;;;;;;;;7.20;7.20;;;;;13.90;83.17;100129.50;6306385;20;2739917;-59
2022/09/22 10:23:22;;;;;;;;;9.00;6.50;;;;;13.90;83.73;100121.41;6319139;20;2743045;-58
2022/09/22 10:26:19;;;;;;;;;6.86;6.86;;;;;13.85;83.21;100126.25;6325479;20;3457626;-58
2022/09/22 10:29:11;;;;;;;;;6.00;5.50;;;;;13.63;82.95;100126.81;6318679;20;2748197;-58
2022/09/22 10:31:42;;;;;;;;;8.00;8.00;;;;;13.57;83.83;100119.16;6285028;20;2748214;-58
2022/09/22 10:34:39;;;;;;;;;6.00;6.00;;;;;13.91;83.18;100114.19;6288733;20;2743076;-59
2022/09/22 10:37:14;;;;;;;;;5.20;5.00;;;;;14.79;79.28;100117.00;6313440;20;2738838;-58
2022/09/22 10:39:48;;;;;;;;;4.00;4.00;;;;;14.40;79.50;100108.03;6322234;20;2750277;-58
2022/09/22 10:42:39;;;;;;;;;7.00;6.50;;;;;14.47;80.81;100112.03;6292549;20;2742961;-57
2022/09/22 10:45:15;;;;;;;;;7.00;7.00;;;;;13.96;81.27;100112.03;6286083;20;2736784;-52
2022/09/22 10:48:49;;;;;;;;;6.00;6.00;;;;;13.78;82.05;100116.84;6292240;20;2740008;-57
2022/09/22 10:52:05;;;;;;;;;6.00;6.00;;;;;14.72;81.07;100124.72;6286685;20;2743147;-59
2022/09/22 10:55:04;;;;;;;;;5.00;5.00;;;;;15.05;79.36;100124.09;6287199;20;2748274;-57
2022/09/22 10:57:42;;;;;;;;;5.00;5.00;;;;;15.14;78.39;100122.56;6285816;20;2751287;-57
2022/09/22 11:00:24;;;;;;;;;6.40;4.40;;;;;15.12;79.21;100119.09;6319131;20;2741998;-58
2022/09/22 11:04:02;;;;;;;;;5.00;4.50;;;;;15.02;79.83;100118.91;6320945;20;2754481;-57
2022/09/22 11:13:43;;;;;;;;;3.00;3.00;;;;;13.55;85.53;100096.81;6319395;20;2739842;-57
2022/09/22 11:16:40;;;;;;;;;6.00;6.00;;;;;13.47;86.69;100099.16;6286132;20;2748199;-57
2022/09/22 11:19:44;;;;;;;;;5.60;4.80;;;;;13.17;87.87;100089.41;6307514;20;2741993;-59
2022/09/22 11:23:10;;;;;;;;;6.00;6.00;;;;;13.00;88.38;100092.34;6320685;20;2740888;-57
2022/09/22 11:26:04;;;;;;;;;5.50;5.50;;;;;13.17;90.43;100086.72;6288817;20;2736790;-59
2022/09/22 11:29:08;;;;;;;;;6.50;6.50;;;;;13.35;88.34;100085.53;6290165;20;2737159;-59
2022/09/22 11:32:18;;;;;;;;;6.00;6.00;;;;;13.90;86.20;100080.94;6287511;20;2737764;-59
2022/09/22 11:35:28;;;;;;;;;5.00;5.00;;;;;14.98;84.63;100090.38;6283754;20;2748226;-59
2022/09/22 11:39:06;;;;;;;;;4.00;4.00;;;;;14.78;81.12;100080.16;6283884;20;2756734;-59
2022/09/22 11:42:27;;;;;;;;;5.00;3.00;;;;;15.21;80.95;100080.53;6288880;20;2748662;-57
2022/09/22 11:45:38;;;;;;;;;4.50;4.50;;;;;14.65;79.04;100066.66;6285962;20;2747104;-56
2022/09/22 11:48:30;;;;;;;;;4.00;4.00;;;;;14.32;79.77;100059.09;6290479;20;2744025;-56
2022/09/22 11:51:37;;;;;;;;;5.00;5.00;;;;;14.69;76.87;100055.53;6285168;20;2747209;-57
2022/09/22 11:54:54;;;;;;;;;7.40;5.00;;;;;15.16;78.33;100058.38;6313602;20;2741998;-56
2022/09/22 11:57:36;;;;;;;;;5.00;5.00;;;;;14.77;77.76;100054.97;6319764;20;2750327;-57
2022/09/22 12:00:35;;;;;;;;;3.50;3.50;;;;;15.01;75.97;100046.00;6287526;20;2746081;-56
2022/09/22 12:03:22;;;;;;;;;4.00;4.00;;;;;15.41;75.57;100052.00;6287201;20;2745090;-54
2022/09/22 12:06:07;;;;;;;;;4.00;3.00;;;;;15.42;71.75;100045.59;6287034;20;2739838;-58
2022/09/22 12:08:52;;;;;;;;;3.00;3.00;;;;;15.57;73.77;100049.84;6290148;20;2737750;-56
2022/09/22 12:11:24;;;;;;;;;4.00;4.00;;;;;15.95;72.88;100051.44;6283689;20;2750306;-58